Time;durP1;ratioP1;P1;durP2;ratioP2;P2;SDS_P1;SDS_P2;PMS_P1;PMS_P2;Temp;Humidity;BMP_temperature;BMP_pressure;BME280_temperature;BME280_humidity;BME280_pressure;Samples;Min_cycle;Max_cycle;Signal;HPM_P1;HPM_P2
2022/08/09 00:00:29;;;;;;;4.50;2.55;;;;;;;18.83;68.54;101639.92;1695940;82;25864;-74
2022/08/09 00:02:57;;;;;;;6.37;2.67;;;;;;;18.81;68.75;101637.44;1704985;82;27618;-74
2022/08/09 00:05:24;;;;;;;5.20;2.42;;;;;;;18.79;68.93;101635.98;1731313;81;25704;-73
2022/08/09 00:07:50;;;;;;;4.80;2.35;;;;;;;18.78;69.08;101631.59;1724106;82;25905;-73
2022/08/09 00:10:16;;;;;;;6.00;2.70;;;;;;;18.77;69.23;101635.37;1706100;82;25834;-74
2022/08/09 00:12:42;;;;;;;3.42;2.45;;;;;;;18.75;69.44;101632.03;1720107;82;26006;-74
2022/08/09 00:15:10;;;;;;;5.55;2.30;;;;;;;18.74;69.59;101635.78;1704448;81;27425;-73
2022/08/09 00:17:36;;;;;;;6.53;2.40;;;;;;;18.72;69.76;101638.72;1714520;82;25806;-73
2022/08/09 00:20:04;;;;;;;4.80;2.35;;;;;;;18.68;69.97;101636.13;1724868;82;26509;-74
2022/08/09 00:22:31;;;;;;;4.05;2.65;;;;;;;18.66;70.40;101638.23;1710401;82;26510;-74
2022/08/09 00:24:57;;;;;;;5.30;2.70;;;;;;;18.62;70.55;101639.71;1690053;83;25853;-75
2022/08/09 00:27:23;;;;;;;10.48;2.70;;;;;;;18.59;70.81;101640.13;1743525;81;27437;-74
2022/08/09 00:29:49;;;;;;;5.25;2.75;;;;;;;18.55;70.79;101638.89;1752045;81;25837;-74
2022/08/09 00:32:16;;;;;;;3.10;2.37;;;;;;;18.54;71.02;101646.70;1745939;81;26224;-73
2022/08/09 00:34:44;;;;;;;5.37;2.17;;;;;;;18.52;71.16;101639.30;1746446;81;25853;-74
2022/08/09 00:37:10;;;;;;;5.87;2.47;;;;;;;18.49;71.25;101641.11;1748712;81;25738;-75
2022/08/09 00:39:36;;;;;;;5.92;2.30;;;;;;;18.44;71.25;101641.73;1742851;81;27458;-74
2022/08/09 00:42:03;;;;;;;4.37;2.55;;;;;;;18.42;71.40;101637.53;1746553;81;25940;-74
2022/08/09 00:44:30;;;;;;;4.03;2.60;;;;;;;18.43;71.45;101641.38;1744427;81;25278;-74
2022/08/09 00:46:56;;;;;;;2.98;2.67;;;;;;;18.43;71.51;101640.58;1749243;81;25892;-74
2022/08/09 00:49:22;;;;;;;5.58;2.37;;;;;;;18.43;71.46;101641.92;1740016;81;25831;-73
2022/08/09 00:51:49;;;;;;;8.15;2.40;;;;;;;18.42;71.48;101641.09;1744194;80;27432;-74
2022/08/09 00:54:15;;;;;;;7.12;3.00;;;;;;;18.40;71.41;101644.54;1738736;79;26008;-74
2022/08/09 00:56:42;;;;;;;3.47;2.60;;;;;;;18.40;71.38;101645.05;1745409;80;25637;-73
2022/08/09 00:59:08;;;;;;;5.33;3.35;;;;;;;18.40;71.48;101645.89;1748236;81;26300;-74
2022/08/09 01:01:39;;;;;;;5.05;3.00;;;;;;;18.39;71.50;101646.12;1707602;82;25954;-74
2022/08/09 01:04:20;;;;;;;3.60;2.58;;;;;;;18.35;71.43;101647.05;1723289;82;27552;-73
2022/08/09 01:07:15;;;;;;;7.08;3.37;;;;;;;18.36;71.67;101650.08;1708033;82;26472;-74
2022/08/09 01:09:56;;;;;;;3.45;2.27;;;;;;;18.35;71.66;101648.40;1712906;82;26218;-73
2022/08/09 01:12:42;;;;;;;8.68;3.02;;;;;;;18.35;71.65;101647.05;1715208;82;25788;-74
2022/08/09 01:15:19;;;;;;;5.00;2.90;;;;;;;18.35;71.82;101646.20;1682821;83;26035;-74
2022/08/09 01:17:57;;;;;;;3.80;2.75;;;;;;;18.34;71.86;101652.69;1706226;82;27605;-74
2022/08/09 01:20:49;;;;;;;5.10;3.08;;;;;;;18.33;71.87;101651.01;1713020;82;26469;-73
2022/08/09 01:23:50;;;;;;;7.47;2.80;;;;;;;18.31;71.87;101654.45;1740807;81;26557;-75
2022/08/09 01:26:55;;;;;;;8.05;2.87;;;;;;;18.27;71.97;101651.86;1719068;82;25798;-74
2022/08/09 01:29:32;;;;;;;6.45;2.83;;;;;;;18.24;72.14;101651.75;1706353;82;25756;-74
2022/08/09 01:32:03;;;;;;;5.25;2.90;;;;;;;18.20;72.25;101655.94;1717188;82;27481;-74
2022/08/09 01:34:32;;;;;;;5.70;2.58;;;;;;;18.18;72.36;101653.12;1685079;83;34894;-74
2022/08/09 01:37:03;;;;;;;11.40;3.30;;;;;;;18.16;72.50;101659.28;1743521;81;25775;-73
2022/08/09 01:39:34;;;;;;;10.00;2.72;;;;;;;18.14;72.61;101660.02;1737246;80;25793;-74
2022/08/09 01:42:04;;;;;;;4.90;2.33;;;;;;;18.11;72.92;101660.45;1745462;81;26070;-73
2022/08/09 01:44:32;;;;;;;5.67;2.95;;;;;;;18.11;72.99;101669.94;1737576;79;27471;-74
2022/08/09 01:47:01;;;;;;;6.08;2.60;;;;;;;18.07;73.29;101662.73;1745379;81;25910;-73
2022/08/09 01:49:31;;;;;;;6.12;2.65;;;;;;;18.04;73.32;101665.03;1741213;81;25994;-73
2022/08/09 01:52:03;;;;;;;5.75;2.70;;;;;;;18.00;73.62;101667.34;1746025;81;25821;-72
2022/08/09 01:54:34;;;;;;;7.25;3.22;;;;;;;17.94;73.83;101664.09;1741785;81;25729;-73
2022/08/09 01:57:11;;;;;;;9.58;3.65;;;;;;;17.90;73.95;101667.45;1743163;81;27444;-73
2022/08/09 01:59:41;;;;;;;7.33;2.60;;;;;;;17.89;74.07;101673.91;1744366;81;26278;-73
2022/08/09 02:02:09;;;;;;;5.50;2.90;;;;;;;17.89;74.23;101670.67;1705118;82;25820;-73
2022/08/09 02:04:37;;;;;;;6.35;2.80;;;;;;;17.90;74.26;101664.20;1704399;82;26075;-73
2022/08/09 02:07:08;;;;;;;7.53;3.20;;;;;;;17.90;74.28;101666.09;1714182;82;25765;-75
2022/08/09 02:09:52;;;;;;;5.78;2.90;;;;;;;17.92;74.20;101670.78;1717709;82;27463;-73
2022/08/09 02:12:21;;;;;;;7.40;3.02;;;;;;;17.92;74.31;101670.24;1687211;83;25893;-74
2022/08/09 02:14:51;;;;;;;8.95;3.08;;;;;;;17.92;74.38;101670.78;1714959;81;25862;-73
2022/08/09 02:17:26;;;;;;;7.87;2.37;;;;;;;17.88;74.28;101674.41;1694385;82;25936;-74
2022/08/09 02:19:53;;;;;;;6.03;2.72;;;;;;;17.87;74.33;101673.28;1708391;82;25790;-74
2022/08/09 02:22:46;;;;;;;4.87;2.75;;;;;;;17.86;74.47;101673.80;1700087;82;27461;-74
2022/08/09 02:25:17;;;;;;;4.28;2.67;;;;;;;17.85;74.47;101674.84;1714858;82;25744;-75
2022/08/09 02:27:51;;;;;;;5.55;2.77;;;;;;;17.82;74.53;101669.83;1703536;82;25849;-73
2022/08/09 02:30:18;;;;;;;7.67;2.85;;;;;;;17.80;74.63;101671.92;1680900;83;25851;-74
2022/08/09 02:32:47;;;;;;;4.47;2.45;;;;;;;17.79;74.79;101672.98;1703773;82;25821;-74
2022/08/09 02:35:22;;;;;;;8.38;3.20;;;;;;;17.77;74.73;101670.97;1739965;79;27477;-73
2022/08/09 02:37:53;;;;;;;5.22;3.20;;;;;;;17.76;74.82;101676.09;1742461;81;25788;-74
2022/08/09 02:40:21;;;;;;;7.17;3.20;;;;;;;17.76;75.02;101681.51;1740967;81;25925;-74
2022/08/09 02:42:50;;;;;;;7.75;2.65;;;;;;;17.74;75.18;101675.47;1741262;81;26545;-74
2022/08/09 02:45:25;;;;;;;9.88;3.60;;;;;;;17.73;75.17;101676.48;1739840;79;25744;-75
2022/08/09 02:47:54;;;;;;;6.17;3.10;;;;;;;17.73;75.34;101674.33;1741905;81;27452;-74
2022/08/09 02:50:32;;;;;;;4.83;3.20;;;;;;;17.71;75.37;101688.91;1711583;81;26249;-75
2022/08/09 02:53:06;;;;;;;4.20;2.80;;;;;;;17.69;75.48;101681.50;1735591;81;25857;-74
2022/08/09 02:55:35;;;;;;;4.72;3.17;;;;;;;17.70;75.66;101684.54;1744809;81;25883;-74
2022/08/09 02:58:02;;;;;;;7.85;3.05;;;;;;;17.68;75.97;101681.17;1737084;81;25807;-74
2022/08/09 03:00:29;;;;;;;5.85;3.72;;;;;;;17.66;76.00;101684.61;1716778;82;28283;-74
2022/08/09 03:02:57;;;;;;;6.08;2.83;;;;;;;17.66;76.12;101686.52;1738979;81;26508;-73
2022/08/09 03:05:24;;;;;;;6.03;2.77;;;;;;;17.65;76.20;101686.18;1739353;79;25847;-74
2022/08/09 03:07:53;;;;;;;4.10;2.80;;;;;;;17.64;76.28;101686.70;1715834;82;26325;-74
2022/08/09 03:10:20;;;;;;;5.72;2.83;;;;;;;17.63;76.32;101697.23;1736935;82;25861;-74
2022/08/09 03:12:48;;;;;;;6.17;3.17;;;;;;;17.62;76.36;101692.03;1715524;82;27458;-73
2022/08/09 03:15:16;;;;;;;7.00;3.10;;;;;;;17.63;76.42;101692.33;1708256;82;26501;-74
2022/08/09 03:17:43;;;;;;;6.40;2.72;;;;;;;17.58;76.46;101691.59;1712457;82;26641;-74
2022/08/09 03:20:12;;;;;;;4.30;2.37;;;;;;;17.57;76.49;101693.16;1705890;82;25781;-74
2022/08/09 03:22:43;;;;;;;6.22;3.20;;;;;;;17.56;76.64;101687.41;1716777;82;26532;-74
2022/08/09 03:25:10;;;;;;;7.08;3.50;;;;;;;17.55;76.72;101682.54;1716834;82;27484;-74
2022/08/09 03:27:37;;;;;;;7.67;2.75;;;;;;;17.54;76.66;101680.86;1705297;82;25800;-73
2022/08/09 03:30:05;;;;;;;4.22;2.98;;;;;;;17.55;76.90;101681.19;1707487;82;25801;-74
2022/08/09 03:32:33;;;;;;;4.00;3.10;;;;;;;17.55;76.87;101681.70;1677039;82;26546;-72
2022/08/09 03:35:00;;;;;;;7.67;3.20;;;;;;;17.57;76.94;101681.81;1717652;82;25974;-73
2022/08/09 03:37:28;;;;;;;4.83;2.70;;;;;;;17.56;76.99;101677.93;1704164;82;28725;-74
2022/08/09 03:39:54;;;;;;;4.00;2.72;;;;;;;17.56;77.14;101686.05;1707950;82;26130;-73
2022/08/09 03:42:20;;;;;;;4.92;2.77;;;;;;;17.53;77.21;101679.20;1706629;82;25741;-75
2022/08/09 03:44:47;;;;;;;3.65;2.98;;;;;;;17.50;77.31;101676.89;1716095;82;25808;-73
2022/08/09 03:47:13;;;;;;;5.92;3.00;;;;;;;17.50;77.55;101682.83;1722741;82;26042;-74
2022/08/09 03:49:41;;;;;;;7.35;3.27;;;;;;;17.49;77.56;101681.95;1709794;82;27519;-73
2022/08/09 03:52:08;;;;;;;3.83;2.58;;;;;;;17.49;77.53;101685.20;1731867;82;25798;-73
2022/08/09 03:54:37;;;;;;;4.67;2.87;;;;;;;17.51;77.62;101686.67;1683028;83;25966;-74
2022/08/09 03:57:07;;;;;;;4.05;2.85;;;;;;;17.53;77.73;101686.48;1741021;81;26384;-75
2022/08/09 03:59:34;;;;;;;3.20;2.62;;;;;;;17.51;77.92;101690.73;1746793;81;26000;-74
2022/08/09 04:02:03;;;;;;;3.75;2.83;;;;;;;17.51;78.09;101695.34;1745930;81;26917;-75
2022/08/09 04:04:30;;;;;;;4.90;3.17;;;;;;;17.50;78.32;101693.66;1713646;82;25884;-75
2022/08/09 04:06:57;;;;;;;6.97;2.77;;;;;;;17.49;78.46;101694.69;1709504;82;25783;-75
2022/08/09 04:09:24;;;;;;;6.25;3.47;;;;;;;17.47;78.53;101692.16;1709837;82;26558;-75
2022/08/09 04:12:02;;;;;;;4.25;2.67;;;;;;;17.45;78.46;101693.43;1709457;82;26547;-74
2022/08/09 04:14:29;;;;;;;4.83;2.77;;;;;;;17.47;78.49;101698.12;1710509;82;27477;-74
2022/08/09 04:16:55;;;;;;;9.10;2.95;;;;;;;17.48;78.46;101691.13;1714763;82;25868;-74
2022/08/09 04:19:22;;;;;;;10.82;4.47;;;;;;;17.50;78.49;101693.66;1715131;82;26362;-75
2022/08/09 04:21:49;;;;;;;3.83;2.87;;;;;;;17.51;78.48;101693.45;1692312;82;25826;-74
2022/08/09 04:24:15;;;;;;;6.30;3.37;;;;;;;17.51;78.42;101689.92;1682688;82;25906;-75
2022/08/09 04:26:41;;;;;;;6.97;3.15;;;;;;;17.54;78.46;101694.91;1713400;82;27580;-73
2022/08/09 04:29:08;;;;;;;5.90;3.85;;;;;;;17.56;78.43;101696.89;1704465;82;25947;-75
2022/08/09 04:31:35;;;;;;;5.50;2.95;;;;;;;17.58;78.44;101697.52;1701781;82;26502;-75
2022/08/09 04:34:02;;;;;;;5.83;2.77;;;;;;;17.60;78.51;101701.70;1707556;82;26648;-75
2022/08/09 04:36:31;;;;;;;4.25;2.70;;;;;;;17.60;78.57;101699.50;1733079;82;25927;-74
2022/08/09 04:39:01;;;;;;;3.40;2.52;;;;;;;17.60;78.60;101700.34;1707188;82;27492;-75
2022/08/09 04:41:28;;;;;;;4.63;3.10;;;;;;;17.61;78.62;101703.38;1731241;82;25770;-75
2022/08/09 04:43:54;;;;;;;6.58;3.22;;;;;;;17.61;78.68;101703.89;1699584;82;26145;-74
2022/08/09 04:46:21;;;;;;;4.35;3.15;;;;;;;17.60;78.91;101707.13;1705565;82;26566;-74
2022/08/09 04:48:47;;;;;;;3.35;2.72;;;;;;;17.61;79.26;101702.03;1716126;82;25845;-73
2022/08/09 04:51:14;;;;;;;3.40;2.70;;;;;;;17.64;79.54;101716.50;1712474;82;28028;-75
2022/08/09 04:53:40;;;;;;;5.87;3.10;;;;;;;17.65;79.55;101710.57;1714752;82;25780;-75
2022/08/09 04:56:07;;;;;;;6.05;3.00;;;;;;;17.64;79.46;101709.73;1709220;82;26520;-75
2022/08/09 04:58:34;;;;;;;5.17;3.10;;;;;;;17.66;79.58;101705.48;1741253;81;25789;-75
2022/08/09 05:01:01;;;;;;;7.05;2.77;;;;;;;17.70;79.61;101706.73;1756644;81;25924;-75
2022/08/09 05:03:28;;;;;;;3.30;2.83;;;;;;;17.73;79.50;101717.69;1739359;80;28242;-74
2022/08/09 05:05:55;;;;;;;3.72;2.75;;;;;;;17.75;79.58;101714.25;1714698;82;26137;-74
2022/08/09 05:08:21;;;;;;;8.73;3.15;;;;;;;17.77;79.58;101718.94;1707321;82;26007;-74
2022/08/09 05:10:47;;;;;;;7.33;3.20;;;;;;;17.78;79.72;101722.78;1689440;84;25770;-74
2022/08/09 05:13:13;;;;;;;4.20;2.62;;;;;;;17.81;79.64;101725.09;1691429;82;25771;-75
2022/08/09 05:15:41;;;;;;;7.70;3.50;;;;;;;17.85;79.84;101717.38;1671397;83;27459;-75
2022/08/09 05:18:08;;;;;;;5.62;3.10;;;;;;;17.85;79.74;101720.93;1714811;82;25751;-74
2022/08/09 05:20:34;;;;;;;6.12;3.35;;;;;;;17.86;79.55;101720.38;1702581;82;26515;-74
2022/08/09 05:23:00;;;;;;;4.90;3.15;;;;;;;17.86;79.70;101720.38;1702853;82;26576;-75
2022/08/09 05:25:27;;;;;;;6.28;3.17;;;;;;;17.89;79.73;101722.70;1710636;82;26552;-74
2022/08/09 05:27:53;;;;;;;4.30;3.20;;;;;;;17.90;79.76;101721.13;1743422;81;27464;-74
2022/08/09 05:30:20;;;;;;;12.70;3.40;;;;;;;17.92;79.76;101722.30;1758298;81;26319;-74
2022/08/09 05:32:46;;;;;;;6.15;3.00;;;;;;;17.93;79.72;101724.78;1740001;81;25672;-74
2022/08/09 05:35:12;;;;;;;5.75;2.98;;;;;;;17.97;79.74;101730.11;1743315;81;26552;-74
2022/08/09 05:37:39;;;;;;;5.97;3.10;;;;;;;17.99;79.78;101729.89;1750772;81;26567;-74
2022/08/09 05:40:07;;;;;;;5.60;3.00;;;;;;;18.00;79.75;101733.77;1744535;81;27418;-74
2022/08/09 05:42:33;;;;;;;4.15;2.87;;;;;;;18.03;79.82;101736.05;1742858;81;25967;-75
2022/08/09 05:45:00;;;;;;;6.33;2.90;;;;;;;18.05;79.84;101733.95;1738028;81;26165;-74
2022/08/09 05:47:27;;;;;;;4.05;3.05;;;;;;;18.08;79.92;101734.91;1747973;81;26414;-74
2022/08/09 05:49:54;;;;;;;5.70;2.87;;;;;;;18.10;79.79;101742.31;1741247;81;26590;-73
2022/08/09 05:52:22;;;;;;;4.33;2.92;;;;;;;18.13;79.79;101738.36;1757800;81;27454;-75
2022/08/09 05:54:49;;;;;;;5.97;3.10;;;;;;;18.14;79.85;101744.08;1741836;81;26559;-74
2022/08/09 05:57:16;;;;;;;4.50;2.47;;;;;;;18.14;79.80;101738.66;1742663;81;25393;-75
2022/08/09 05:59:43;;;;;;;8.38;3.25;;;;;;;18.14;79.90;101740.85;1744739;81;25746;-75
2022/08/09 06:02:09;;;;;;;4.55;3.12;;;;;;;18.17;79.85;101740.96;1753572;81;26040;-75
2022/08/09 06:04:35;;;;;;;6.50;3.27;;;;;;;18.18;79.92;101743.45;1743868;81;28261;-74
2022/08/09 06:07:03;;;;;;;8.80;2.87;;;;;;;18.22;79.99;101737.92;1734987;81;25817;-74
2022/08/09 06:09:29;;;;;;;8.78;3.10;;;;;;;18.24;79.97;101741.26;1710108;82;26579;-75
2022/08/09 06:11:57;;;;;;;7.53;3.05;;;;;;;18.31;80.18;101738.55;1688968;83;25835;-74
2022/08/09 06:14:24;;;;;;;6.15;2.95;;;;;;;18.34;79.47;101753.90;1705300;82;25984;-75
2022/08/09 06:16:51;;;;;;;7.10;3.10;;;;;;;18.38;79.58;101747.01;1689362;82;27469;-74
2022/08/09 06:19:18;;;;;;;5.10;2.98;;;;;;;18.44;79.44;101744.84;1711498;82;25906;-74
2022/08/09 06:21:44;;;;;;;5.90;2.77;;;;;;;18.51;79.21;101752.97;1682079;84;26891;-74
2022/08/09 06:24:10;;;;;;;6.08;2.90;;;;;;;18.55;79.11;101750.14;1752358;81;26282;-75
2022/08/09 06:26:40;;;;;;;5.72;3.17;;;;;;;18.62;79.06;101749.63;1740460;81;25640;-74
2022/08/09 06:29:05;;;;;;;4.12;3.20;;;;;;;18.68;78.75;101747.92;1747216;81;27480;-75
2022/08/09 06:31:32;;;;;;;5.70;2.98;;;;;;;18.74;78.78;101753.86;1747739;81;25785;-75
2022/08/09 06:33:59;;;;;;;7.30;2.72;;;;;;;18.78;78.29;101744.23;1713789;82;25753;-75
2022/08/09 06:36:25;;;;;;;7.85;3.33;;;;;;;18.79;77.86;101751.35;1721319;82;26624;-75
2022/08/09 06:38:51;;;;;;;9.58;3.27;;;;;;;18.81;77.80;101750.61;1722879;82;25834;-75
2022/08/09 06:41:18;;;;;;;4.33;3.17;;;;;;;18.84;77.48;101753.73;1707437;82;27464;-75
2022/08/09 06:43:45;;;;;;;6.55;2.72;;;;;;;18.86;77.38;101759.78;1707075;82;25793;-75
2022/08/09 06:46:11;;;;;;;6.28;3.08;;;;;;;18.92;77.78;101758.95;1711352;82;25805;-76
2022/08/09 06:48:40;;;;;;;7.08;2.60;;;;;;;18.98;77.60;101761.33;1706398;82;25800;-75
2022/08/09 06:51:06;;;;;;;4.20;2.95;;;;;;;19.02;77.79;101762.05;1707691;82;25338;-76
2022/08/09 06:53:32;;;;;;;5.65;2.65;;;;;;;19.07;77.53;101764.12;1689307;82;27450;-76
2022/08/09 06:55:59;;;;;;;5.60;2.60;;;;;;;19.12;77.38;101764.30;1733370;81;26425;-75
2022/08/09 06:58:25;;;;;;;6.97;2.90;;;;;;;19.18;76.89;101766.17;1746816;81;25305;-75
2022/08/09 07:00:51;;;;;;;3.85;2.75;;;;;;;19.21;76.83;101763.02;1759403;81;26551;-75
2022/08/09 07:03:18;;;;;;;5.15;2.67;;;;;;;19.21;76.13;101765.21;1746023;81;25814;-75
2022/08/09 07:05:44;;;;;;;4.87;3.55;;;;;;;19.23;76.13;101769.91;1751249;81;28819;-75
2022/08/09 07:08:10;;;;;;;5.28;2.83;;;;;;;19.30;76.45;101769.03;1740937;80;25959;-76
2022/08/09 07:10:36;;;;;;;6.33;2.98;;;;;;;19.39;76.70;101769.14;1736646;81;25899;-75
2022/08/09 07:13:03;;;;;;;6.17;2.90;;;;;;;19.45;76.16;101773.70;1738059;80;26598;-76
2022/08/09 07:15:30;;;;;;;5.37;2.67;;;;;;;19.49;75.66;101772.22;1746115;81;25850;-74
2022/08/09 07:17:56;;;;;;;6.45;2.98;;;;;;;19.53;76.11;101774.29;1751228;81;27444;-75
2022/08/09 07:20:24;;;;;;;5.85;2.80;;;;;;;19.58;75.83;101770.92;1737549;81;26416;-75
2022/08/09 07:22:52;;;;;;;5.85;3.02;;;;;;;19.64;75.69;101777.69;1744158;81;26499;-74
2022/08/09 07:25:19;;;;;;;6.25;2.60;;;;;;;19.69;75.65;101781.95;1718335;81;26338;-74
2022/08/09 07:27:46;;;;;;;4.45;2.92;;;;;;;19.77;75.44;101784.93;1707122;82;25937;-75
2022/08/09 07:30:13;;;;;;;6.25;2.80;;;;;;;19.86;75.70;101787.19;1730413;82;28288;-75
2022/08/09 07:32:42;;;;;;;6.30;2.55;;;;;;;19.95;75.11;101787.75;1707455;82;25804;-74
2022/08/09 07:35:11;;;;;;;3.90;2.37;;;;;;;19.98;74.61;101785.42;1740057;81;25806;-75
2022/08/09 07:37:41;;;;;;;7.00;2.50;;;;;;;20.02;74.50;101789.08;1739121;81;25830;-74
2022/08/09 07:40:09;;;;;;;4.10;2.72;;;;;;;20.05;74.23;101794.89;1740505;80;26018;-75
2022/08/09 07:42:52;;;;;;;4.60;2.40;;;;;;;20.09;73.67;101793.40;1731483;81;27490;-75
2022/08/09 07:45:25;;;;;;;4.03;2.65;;;;;;;20.14;73.49;101793.58;1737330;80;26517;-75
2022/08/09 07:47:53;;;;;;;7.72;2.65;;;;;;;20.17;73.76;101789.04;1741962;81;25275;-74
2022/08/09 07:50:21;;;;;;;3.12;2.17;;;;;;;20.23;73.17;101798.27;1735974;81;26244;-76
2022/08/09 07:52:48;;;;;;;4.10;2.40;;;;;;;20.30;73.24;101792.22;1744233;81;25900;-74
2022/08/09 07:55:16;;;;;;;3.80;2.60;;;;;;;20.39;72.95;101798.53;1736394;81;27635;-74
2022/08/09 07:57:44;;;;;;;4.95;2.40;;;;;;;20.44;72.85;101799.23;1746546;80;25831;-75
2022/08/09 08:00:11;;;;;;;3.55;2.17;;;;;;;20.49;72.36;101800.73;1737601;81;26573;-75
2022/08/09 08:02:41;;;;;;;5.10;2.20;;;;;;;20.48;72.23;101798.57;1744791;81;25846;-74
2022/08/09 08:05:08;;;;;;;4.85;2.40;;;;;;;20.55;72.79;101804.77;1749326;79;25823;-75
2022/08/09 08:07:35;;;;;;;4.00;2.40;;;;;;;20.58;72.04;101800.77;1735085;81;27474;-76
2022/08/09 08:10:01;;;;;;;6.92;2.47;;;;;;;20.62;71.99;101796.02;1742011;81;26478;-75
2022/08/09 08:12:28;;;;;;;4.37;2.20;;;;;;;20.68;71.89;101800.56;1733351;81;25298;-74
2022/08/09 08:14:54;;;;;;;2.62;2.40;;;;;;;20.69;71.10;101800.89;1741276;80;26344;-75
2022/08/09 08:17:20;;;;;;;4.08;2.05;;;;;;;20.66;70.23;101803.20;1739897;81;25945;-76
2022/08/09 08:19:47;;;;;;;4.37;2.20;;;;;;;20.67;70.39;101804.36;1714245;82;27436;-75
2022/08/09 08:22:13;;;;;;;4.15;2.60;;;;;;;20.68;70.41;101801.09;1708060;82;26551;-75
2022/08/09 08:24:39;;;;;;;7.65;2.33;;;;;;;20.69;70.51;101807.70;1707172;82;26466;-76
2022/08/09 08:27:07;;;;;;;3.80;2.45;;;;;;;20.73;70.38;101804.83;1678149;83;25934;-76
2022/08/09 08:29:33;;;;;;;5.25;2.27;;;;;;;20.74;70.22;101799.66;1681234;83;25805;-75
2022/08/09 08:31:59;;;;;;;2.25;1.90;;;;;;;20.78;69.97;101802.80;1716846;82;27455;-75
2022/08/09 08:34:26;;;;;;;3.40;2.25;;;;;;;20.82;69.48;101804.00;1683800;82;25826;-75
2022/08/09 08:36:52;;;;;;;3.58;2.17;;;;;;;20.88;69.83;101802.26;1704368;82;25590;-75
2022/08/09 08:39:18;;;;;;;4.58;2.17;;;;;;;20.94;70.11;101803.55;1707555;82;26539;-75
2022/08/09 08:41:45;;;;;;;3.75;2.62;;;;;;;20.99;70.35;101802.87;1685409;83;25791;-75
2022/08/09 08:44:13;;;;;;;2.67;2.05;;;;;;;21.02;70.67;101810.06;1694096;82;27188;-75
2022/08/09 08:46:40;;;;;;;3.00;2.27;;;;;;;21.03;70.96;101806.84;1753273;81;25832;-75
2022/08/09 08:49:07;;;;;;;4.40;2.15;;;;;;;21.04;70.97;101805.25;1756647;81;26408;-75
2022/08/09 08:51:35;;;;;;;3.27;2.62;;;;;;;21.04;70.60;101805.25;1756750;81;25769;-75
2022/08/09 08:54:06;;;;;;;3.60;2.20;;;;;;;21.04;70.45;101807.17;1757664;79;26432;-75
2022/08/09 08:56:39;;;;;;;3.80;2.17;;;;;;;21.05;70.12;101803.36;1751361;81;27537;-75
2022/08/09 08:59:08;;;;;;;3.83;1.90;;;;;;;21.05;68.79;101800.64;1752774;81;25812;-74
2022/08/09 09:01:37;;;;;;;6.25;2.00;;;;;;;21.06;67.77;101806.41;1747760;81;25845;-75
2022/08/09 09:04:09;;;;;;;3.45;2.37;;;;;;;21.04;67.83;101808.53;1743436;81;26384;-75
2022/08/09 09:06:39;;;;;;;6.33;2.67;;;;;;;21.07;68.03;101806.70;1746374;81;25731;-75
2022/08/09 09:09:08;;;;;;;5.42;2.12;;;;;;;21.08;68.09;101805.12;1754184;80;45732;-76
2022/08/09 09:11:36;;;;;;;2.40;2.17;;;;;;;21.12;67.70;101808.22;1745073;81;25783;-75
2022/08/09 09:14:15;;;;;;;2.65;2.00;;;;;;;21.11;67.90;101806.02;1755232;80;25891;-75
2022/08/09 09:16:41;;;;;;;3.33;2.00;;;;;;;21.14;67.66;101815.12;1743447;80;25792;-76
2022/08/09 09:19:10;;;;;;;5.53;2.10;;;;;;;21.11;66.73;101814.19;1752745;80;25777;-75
2022/08/09 09:21:56;;;;;;;3.00;2.22;;;;;;;21.11;66.82;101812.83;1752123;81;26938;-75
2022/08/09 09:24:29;;;;;;;5.12;2.02;;;;;;;21.11;66.35;101806.55;1743179;79;26297;-76
2022/08/09 09:26:58;;;;;;;3.72;2.08;;;;;;;21.13;67.13;101810.71;1711429;82;26568;-74
2022/08/09 09:29:38;;;;;;;3.90;2.00;;;;;;;21.15;66.97;101801.78;1715555;82;26524;-75
2022/08/09 09:32:05;;;;;;;4.97;1.77;;;;;;;21.18;66.43;101805.42;1713305;82;25994;-75
2022/08/09 09:34:33;;;;;;;7.37;2.10;;;;;;;21.19;65.45;101811.16;1710637;82;27430;-75
2022/08/09 09:37:02;;;;;;;4.67;2.15;;;;;;;21.21;65.76;101813.13;1695586;83;25758;-75
2022/08/09 09:39:30;;;;;;;4.22;2.47;;;;;;;21.20;65.63;101819.66;1707458;82;25552;-75
2022/08/09 09:41:58;;;;;;;2.80;1.87;;;;;;;21.23;65.95;101812.92;1712993;82;25761;-75
2022/08/09 09:44:33;;;;;;;5.15;2.22;;;;;;;21.28;65.66;101817.14;1715735;81;25447;-75
2022/08/09 09:47:10;;;;;;;5.50;1.92;;;;;;;21.31;64.82;101816.70;1694673;82;28548;-76
2022/08/09 09:49:39;;;;;;;4.85;1.90;;;;;;;21.33;64.56;101813.21;1706944;82;26501;-75
2022/08/09 09:52:08;;;;;;;3.45;2.02;;;;;;;21.36;64.81;101814.13;1747522;81;25817;-75
2022/08/09 09:54:47;;;;;;;3.12;2.02;;;;;;;21.41;64.07;101814.26;1751827;81;26493;-75
2022/08/09 09:57:21;;;;;;;6.33;2.37;;;;;;;21.45;63.63;101813.58;1750091;81;26520;-76
2022/08/09 09:59:50;;;;;;;4.10;2.02;;;;;;;;;;1720587;81;27486;-75
2022/08/09 10:02:19;;;;;;;8.33;2.30;;;;;;;21.56;63.83;101808.41;1703815;82;25785;-74
2022/08/09 10:05:08;;;;;;;3.05;2.62;;;;;;;21.61;64.06;101809.92;1706836;82;25301;-75
2022/08/09 10:07:36;;;;;;;3.80;2.00;;;;;;;21.68;63.91;101809.31;1688009;83;26623;-75
2022/08/09 10:10:07;;;;;;;4.97;2.17;;;;;;;21.73;63.63;101810.80;1681971;83;25942;-74
2022/08/09 10:12:38;;;;;;;3.60;2.00;;;;;;;21.79;64.01;101807.17;1717839;82;28286;-75
2022/08/09 10:15:16;;;;;;;4.87;2.20;;;;;;;21.82;62.98;101809.41;1707135;82;25692;-74
2022/08/09 10:17:46;;;;;;;3.30;2.12;;;;;;;21.83;63.25;101807.88;1702063;82;25754;-75
2022/08/09 10:20:26;;;;;;;4.35;2.10;;;;;;;21.85;62.60;101811.20;1693349;82;25799;-74
2022/08/09 10:22:58;;;;;;;2.83;2.00;;;;;;;21.86;62.33;101805.19;1713516;82;25998;-75
2022/08/09 10:25:23;;;;;;;3.42;2.20;;;;;;;21.89;62.71;101800.65;1686784;83;27492;-75
2022/08/09 10:27:49;;;;;;;2.95;2.10;;;;;;;21.96;63.14;101807.66;1692280;83;25770;-75
2022/08/09 10:30:16;;;;;;;8.20;2.27;;;;;;;22.04;63.16;101803.78;1711749;82;26578;-74
2022/08/09 10:32:44;;;;;;;2.85;1.67;;;;;;;22.03;62.33;101800.73;1709138;82;25955;-75
2022/08/09 10:35:11;;;;;;;3.87;1.82;;;;;;;22.03;62.58;101800.73;1691713;83;25704;-75
2022/08/09 10:37:37;;;;;;;4.20;2.02;;;;;;;22.05;61.63;101803.55;1697701;82;27408;-75
2022/08/09 10:40:06;;;;;;;4.97;1.72;;;;;;;22.09;61.61;101796.55;1718651;81;26222;-76
2022/08/09 10:42:33;;;;;;;2.87;1.80;;;;;;;22.12;61.83;101802.08;1712232;82;25940;-75
2022/08/09 10:45:09;;;;;;;5.70;1.90;;;;;;;22.12;61.69;101802.08;1748743;81;25830;-75
2022/08/09 10:48:07;;;;;;;2.60;1.92;;;;;;;22.14;61.17;101794.48;1742037;81;25806;-75
2022/08/09 10:51:13;;;;;;;4.50;1.75;;;;;;;22.16;61.16;101795.92;1741548;81;27475;-75
2022/08/09 10:54:09;;;;;;;3.80;2.02;;;;;;;22.17;61.30;101789.94;1719823;82;25705;-75
2022/08/09 10:56:38;;;;;;;4.28;1.80;;;;;;;22.25;61.44;101793.69;1713238;82;25606;-75
2022/08/09 10:59:27;;;;;;;4.08;2.00;;;;;;;22.36;61.78;101787.41;1710612;82;25935;-75
2022/08/09 11:01:54;;;;;;;3.50;2.17;;;;;;;22.51;60.94;101778.23;1716426;82;25946;-75
2022/08/09 11:04:25;;;;;;;4.87;2.20;;;;;;;22.56;61.12;101783.80;1728560;81;27457;-75
2022/08/09 11:07:02;;;;;;;5.55;2.05;;;;;;;22.62;60.98;101784.80;1722273;82;26507;-74
2022/08/09 11:09:46;;;;;;;3.98;1.70;;;;;;;22.71;60.67;101783.38;1725417;81;26063;-75
2022/08/09 11:12:19;;;;;;;3.10;1.80;;;;;;;22.80;60.44;101781.40;1741403;80;26444;-75
2022/08/09 11:14:53;;;;;;;3.85;1.67;;;;;;;22.90;58.99;101780.25;1750463;79;25787;-75
2022/08/09 11:17:25;;;;;;;4.05;1.67;;;;;;;22.91;58.87;101778.36;1746416;80;27293;-74
2022/08/09 11:20:09;;;;;;;3.65;1.90;;;;;;;22.94;59.13;101784.72;1747927;81;25798;-75
2022/08/09 11:22:46;;;;;;;3.80;2.15;;;;;;;22.97;58.27;101780.13;1749821;81;25254;-74
2022/08/09 11:25:22;;;;;;;2.25;1.57;;;;;;;22.98;57.08;101777.17;1744181;81;25897;-74
2022/08/09 11:27:54;;;;;;;4.15;1.80;;;;;;;23.00;56.24;101776.92;1709682;82;25554;-74
2022/08/09 11:30:29;;;;;;;3.12;1.47;;;;;;;23.00;56.29;101775.03;1690281;83;27469;-75
2022/08/09 11:33:04;;;;;;;3.02;1.85;;;;;;;23.06;55.80;101776.48;1745883;81;25941;-75
2022/08/09 11:35:46;;;;;;;3.52;1.72;;;;;;;23.14;55.67;101771.48;1744701;80;26406;-75
2022/08/09 11:38:20;;;;;;;2.55;1.90;;;;;;;23.22;55.80;101763.45;1746524;81;26603;-74